WAT2204 SEGU-SCEL
Flight info
| Callsign | WAT2204 |
|---|---|
| Flight time | N/A |
| Altitude | 35000 |
| Route | EVRED2A EVRED UL780 ISREN UM542 ILMAR UL302 ASEPU/N0442F370 UL302 TOY UV208 EMBAL UV204 SIMOK SIMOK7B |
| Aircraft | A320/M-SDE3FGHIRWY/LB1 |
Departure
| Time | 2026-04-29 05:42 |
|---|---|
| Airport | José Joaquín de Olmedo International Airport (SEGU) |
Arrival
| Time | N/A |
|---|---|
| Airport | Comodoro Arturo Merino Benítez International Airport (SCEL) |
| Time | Latitude | Longitude | Altitude | Speed | Heading |
|---|---|---|---|---|---|
| 2026-04-29 05:30 | -2.14947 | -79.88368 | 22 ft | 0 kts | 298° |
| 2026-04-29 05:36 | -2.14955 | -79.88354 | 26 ft | 3 kts | 298° |
| 2026-04-29 05:36 | -2.14963 | -79.88338 | 27 ft | 3 kts | 306° |
| 2026-04-29 05:36 | -2.14978 | -79.88325 | 27 ft | 3 kts | 349° |
| 2026-04-29 05:37 | -2.14992 | -79.88325 | 28 ft | 0 kts | 15° |
| 2026-04-29 05:38 | -2.14991 | -79.88325 | 28 ft | 1 kts | 15° |
| 2026-04-29 05:39 | -2.14966 | -79.88312 | 25 ft | 9 kts | 26° |
| 2026-04-29 05:39 | -2.14895 | -79.88265 | 22 ft | 17 kts | 31° |
| 2026-04-29 05:39 | -2.14790 | -79.88174 | 24 ft | 22 kts | 88° |
| 2026-04-29 05:39 | -2.14809 | -79.88028 | 23 ft | 22 kts | 38° |
| 2026-04-29 05:40 | -2.14665 | -79.87916 | 24 ft | 31 kts | 59° |
| 2026-04-29 05:40 | -2.14645 | -79.87866 | 26 ft | 0 kts | 75° |
| 2026-04-29 05:41 | -2.14644 | -79.87864 | 26 ft | 3 kts | 75° |
| 2026-04-29 05:41 | -2.14637 | -79.87792 | 22 ft | 18 kts | 105° |
| 2026-04-29 05:41 | -2.14747 | -79.87792 | 24 ft | 23 kts | 208° |
| 2026-04-29 05:42 | -2.15027 | -79.87948 | 24 ft | 76 kts | 210° |
| 2026-04-29 05:42 | -2.15664 | -79.88310 | 22 ft | 134 kts | 210° |
| 2026-04-29 05:42 | -2.16619 | -79.88866 | 164 ft | 176 kts | 210° |
| 2026-04-29 05:42 | -2.17676 | -79.89481 | 1036 ft | 172 kts | 210° |
| 2026-04-29 05:43 | -2.18799 | -79.90140 | 1245 ft | 211 kts | 211° |
| 2026-04-29 05:43 | -2.20241 | -79.91036 | 1118 ft | 264 kts | 212° |
| 2026-04-29 05:43 | -2.21816 | -79.91971 | 2209 ft | 264 kts | 207° |
| 2026-04-29 05:43 | -2.23587 | -79.92409 | 3200 ft | 268 kts | 178° |
| 2026-04-29 05:44 | -2.25443 | -79.92071 | 4130 ft | 274 kts | 166° |
| 2026-04-29 05:44 | -2.27292 | -79.91565 | 5033 ft | 277 kts | 165° |
| 2026-04-29 05:44 | -2.29147 | -79.91076 | 5888 ft | 281 kts | 166° |
| 2026-04-29 05:44 | -2.31051 | -79.90594 | 6724 ft | 285 kts | 166° |
| 2026-04-29 05:45 | -2.32987 | -79.90100 | 7538 ft | 288 kts | 166° |
| 2026-04-29 05:45 | -2.34944 | -79.89598 | 8316 ft | 292 kts | 166° |
| 2026-04-29 05:45 | -2.36928 | -79.89090 | 9120 ft | 296 kts | 166° |
| 2026-04-29 05:45 | -2.38929 | -79.88577 | 9927 ft | 298 kts | 166° |
| 2026-04-29 05:46 | -2.40958 | -79.88057 | 10638 ft | 303 kts | 166° |
| 2026-04-29 05:46 | -2.43093 | -79.87512 | 10503 ft | 336 kts | 166° |
| 2026-04-29 05:46 | -2.45474 | -79.86901 | 10513 ft | 362 kts | 166° |
| 2026-04-29 05:46 | -2.47941 | -79.86268 | 11218 ft | 365 kts | 166° |
| 2026-04-29 05:47 | -2.50409 | -79.85637 | 11917 ft | 368 kts | 166° |
| 2026-04-29 05:47 | -2.52875 | -79.85005 | 12512 ft | 372 kts | 166° |
| 2026-04-29 05:47 | -2.55116 | -79.84431 | 13071 ft | 374 kts | 166° |
| 2026-04-29 05:47 | -2.57626 | -79.83787 | 14160 ft | 363 kts | 166° |
| 2026-04-29 05:48 | -2.60095 | -79.83155 | 14595 ft | 372 kts | 166° |
| 2026-04-29 05:48 | -2.62586 | -79.82517 | 15131 ft | 374 kts | 166° |
| 2026-04-29 05:48 | -2.65115 | -79.81869 | 15727 ft | 376 kts | 166° |
| 2026-04-29 05:48 | -2.67670 | -79.81214 | 16222 ft | 380 kts | 166° |
| 2026-04-29 05:49 | -2.70243 | -79.80555 | 16753 ft | 383 kts | 166° |
| 2026-04-29 05:49 | -2.72834 | -79.79892 | 17250 ft | 386 kts | 166° |
| 2026-04-29 05:49 | -2.75449 | -79.79221 | 17736 ft | 389 kts | 166° |
| 2026-04-29 05:49 | -2.78079 | -79.78547 | 18209 ft | 392 kts | 166° |
| 2026-04-29 05:50 | -2.80730 | -79.77867 | 18664 ft | 394 kts | 166° |
| 2026-04-29 05:50 | -2.83388 | -79.77147 | 19112 ft | 397 kts | 165° |
| 2026-04-29 05:50 | -2.86027 | -79.76403 | 19543 ft | 400 kts | 165° |
| 2026-04-29 05:50 | -2.88721 | -79.75664 | 19962 ft | 402 kts | 165° |
| 2026-04-29 05:51 | -2.91431 | -79.74937 | 20370 ft | 405 kts | 165° |
| 2026-04-29 05:51 | -2.94165 | -79.74193 | 20770 ft | 408 kts | 165° |
| 2026-04-29 05:51 | -2.96907 | -79.73440 | 21157 ft | 410 kts | 165° |
| 2026-04-29 05:51 | -2.99678 | -79.72684 | 21538 ft | 412 kts | 165° |
| 2026-04-29 05:52 | -3.02453 | -79.71929 | 21903 ft | 415 kts | 165° |
| 2026-04-29 05:52 | -3.05248 | -79.71166 | 22263 ft | 417 kts | 165° |
| 2026-04-29 05:52 | -3.08051 | -79.70401 | 22615 ft | 419 kts | 165° |
| 2026-04-29 05:52 | -3.10882 | -79.69629 | 22962 ft | 422 kts | 165° |
| 2026-04-29 05:53 | -3.12758 | -79.69118 | 23182 ft | 423 kts | 165° |
| 2026-04-29 05:53 | -3.15605 | -79.68341 | 23508 ft | 425 kts | 165° |
| 2026-04-29 05:53 | -3.18463 | -79.67561 | 23819 ft | 427 kts | 165° |
| 2026-04-29 05:53 | -3.22281 | -79.66519 | 24239 ft | 430 kts | 165° |
| 2026-04-29 05:54 | -3.25172 | -79.65730 | 24537 ft | 432 kts | 165° |
| 2026-04-29 05:54 | -3.28077 | -79.64938 | 24830 ft | 434 kts | 165° |
| 2026-04-29 05:54 | -3.30057 | -79.64397 | 25028 ft | 435 kts | 165° |
| 2026-04-29 05:54 | -3.32982 | -79.63599 | 25308 ft | 437 kts | 165° |
| 2026-04-29 05:55 | -3.35892 | -79.62805 | 25575 ft | 439 kts | 165° |
| 2026-04-29 05:55 | -3.38847 | -79.61998 | 25842 ft | 441 kts | 165° |
| 2026-04-29 05:55 | -3.41812 | -79.61189 | 26100 ft | 443 kts | 165° |
| 2026-04-29 05:55 | -3.44791 | -79.60376 | 26359 ft | 444 kts | 165° |
| 2026-04-29 05:56 | -3.47783 | -79.59558 | 26611 ft | 446 kts | 165° |
| 2026-04-29 05:56 | -3.50781 | -79.58740 | 26851 ft | 448 kts | 165° |
| 2026-04-29 05:56 | -3.53798 | -79.57917 | 27093 ft | 450 kts | 165° |
| 2026-04-29 05:56 | -3.56819 | -79.57092 | 27327 ft | 451 kts | 165° |
| 2026-04-29 05:57 | -3.59861 | -79.56260 | 27558 ft | 453 kts | 165° |
| 2026-04-29 05:57 | -3.62903 | -79.55429 | 27775 ft | 454 kts | 165° |
| 2026-04-29 05:57 | -3.65963 | -79.54595 | 27961 ft | 457 kts | 165° |
| 2026-04-29 05:57 | -3.69056 | -79.53751 | 27979 ft | 463 kts | 165° |
| 2026-04-29 05:58 | -3.75327 | -79.52036 | 28326 ft | 467 kts | 165° |
| 2026-04-29 05:58 | -3.78460 | -79.51180 | 28660 ft | 466 kts | 165° |
| 2026-04-29 05:58 | -3.81584 | -79.50327 | 28921 ft | 466 kts | 165° |
| 2026-04-29 05:59 | -3.84715 | -79.49472 | 29182 ft | 465 kts | 165° |
| 2026-04-29 05:59 | -3.87833 | -79.48620 | 29455 ft | 465 kts | 165° |
| 2026-04-29 05:59 | -3.90953 | -79.47767 | 29726 ft | 464 kts | 165° |
| 2026-04-29 05:59 | -3.94070 | -79.46915 | 29991 ft | 464 kts | 165° |
| 2026-04-29 06:00 | -3.97179 | -79.46066 | 30239 ft | 463 kts | 165° |
| 2026-04-29 06:00 | -4.00287 | -79.45216 | 30492 ft | 463 kts | 165° |
| 2026-04-29 06:00 | -4.03395 | -79.44366 | 30744 ft | 462 kts | 165° |
| 2026-04-29 06:00 | -4.06457 | -79.43529 | 30983 ft | 462 kts | 165° |
| 2026-04-29 06:01 | -4.09554 | -79.42683 | 31229 ft | 461 kts | 165° |
| 2026-04-29 06:01 | -4.12691 | -79.41825 | 31476 ft | 461 kts | 165° |
| 2026-04-29 06:01 | -4.15743 | -79.40990 | 31707 ft | 460 kts | 165° |
| 2026-04-29 06:01 | -4.18827 | -79.40146 | 31932 ft | 460 kts | 165° |
| 2026-04-29 06:02 | -4.21954 | -79.39292 | 32161 ft | 459 kts | 165° |
| 2026-04-29 06:02 | -4.24998 | -79.38459 | 32379 ft | 459 kts | 165° |
| 2026-04-29 06:02 | -4.28078 | -79.37616 | 32599 ft | 459 kts | 165° |
| 2026-04-29 06:02 | -4.31160 | -79.36774 | 32823 ft | 458 kts | 165° |
| 2026-04-29 06:03 | -4.34230 | -79.35934 | 33037 ft | 458 kts | 165° |
| 2026-04-29 06:03 | -4.37310 | -79.35090 | 33253 ft | 457 kts | 165° |
| 2026-04-29 06:03 | -4.40378 | -79.34251 | 33466 ft | 457 kts | 165° |
| 2026-04-29 06:03 | -4.43450 | -79.33411 | 33669 ft | 456 kts | 165° |
| 2026-04-29 06:04 | -4.46509 | -79.32573 | 33870 ft | 456 kts | 165° |
| 2026-04-29 06:04 | -4.49583 | -79.31732 | 34066 ft | 456 kts | 165° |
| 2026-04-29 06:04 | -4.52645 | -79.30895 | 34260 ft | 455 kts | 165° |
| 2026-04-29 06:04 | -4.55665 | -79.30067 | 34444 ft | 455 kts | 165° |
| 2026-04-29 06:05 | -4.58714 | -79.29232 | 34633 ft | 455 kts | 165° |
| 2026-04-29 06:05 | -4.61771 | -79.28395 | 34814 ft | 454 kts | 165° |
| 2026-04-29 06:05 | -4.64822 | -79.27560 | 34971 ft | 455 kts | 165° |
| 2026-04-29 06:05 | -4.67890 | -79.26720 | 34983 ft | 459 kts | 165° |
| 2026-04-29 06:06 | -4.74092 | -79.25021 | 35011 ft | 463 kts | 165° |
| 2026-04-29 06:06 | -4.80288 | -79.23324 | 35009 ft | 460 kts | 165° |
| 2026-04-29 06:07 | -4.86466 | -79.21632 | 35013 ft | 460 kts | 165° |
| 2026-04-29 06:07 | -4.92631 | -79.19941 | 35007 ft | 459 kts | 165° |
| 2026-04-29 06:08 | -4.98807 | -79.18250 | 35007 ft | 459 kts | 165° |
| 2026-04-29 06:08 | -5.04936 | -79.16569 | 35008 ft | 459 kts | 165° |
| 2026-04-29 06:09 | -5.11103 | -79.14878 | 35013 ft | 459 kts | 165° |
| 2026-04-29 06:09 | -5.17274 | -79.13186 | 35005 ft | 459 kts | 165° |
| 2026-04-29 06:10 | -5.23440 | -79.11494 | 35008 ft | 459 kts | 165° |
| 2026-04-29 06:10 | -5.29614 | -79.09800 | 35011 ft | 460 kts | 165° |
| 2026-04-29 06:11 | -5.35797 | -79.08104 | 35006 ft | 460 kts | 165° |
| 2026-04-29 06:11 | -5.41937 | -79.06418 | 35008 ft | 460 kts | 165° |
| 2026-04-29 06:12 | -5.48124 | -79.04719 | 35013 ft | 460 kts | 165° |
| 2026-04-29 06:12 | -5.54306 | -79.03022 | 35009 ft | 460 kts | 165° |
| 2026-04-29 06:13 | -5.60500 | -79.01320 | 35011 ft | 461 kts | 165° |
| 2026-04-29 06:13 | -5.66685 | -78.99622 | 35010 ft | 461 kts | 165° |
| 2026-04-29 06:14 | -5.72878 | -78.97919 | 35007 ft | 461 kts | 165° |
| 2026-04-29 06:14 | -5.79024 | -78.96231 | 35007 ft | 461 kts | 165° |
| 2026-04-29 06:15 | -5.85225 | -78.94526 | 35011 ft | 461 kts | 165° |
| 2026-04-29 06:15 | -5.91406 | -78.92826 | 35010 ft | 460 kts | 165° |
| 2026-04-29 06:16 | -5.97567 | -78.91132 | 35008 ft | 458 kts | 165° |
| 2026-04-29 06:16 | -6.03723 | -78.89439 | 35006 ft | 458 kts | 165° |
| 2026-04-29 06:17 | -6.09864 | -78.87748 | 35014 ft | 457 kts | 165° |
| 2026-04-29 06:17 | -6.15972 | -78.86068 | 35006 ft | 459 kts | 165° |
| 2026-04-29 06:18 | -6.22143 | -78.84368 | 35010 ft | 460 kts | 165° |
| 2026-04-29 06:18 | -6.28321 | -78.82669 | 35004 ft | 461 kts | 165° |
| 2026-04-29 06:19 | -6.34509 | -78.80963 | 35014 ft | 461 kts | 165° |
| 2026-04-29 06:19 | -6.40694 | -78.79260 | 35006 ft | 460 kts | 165° |
| 2026-04-29 06:20 | -6.46862 | -78.77559 | 35011 ft | 459 kts | 165° |
| 2026-04-29 06:20 | -6.53027 | -78.75861 | 35008 ft | 458 kts | 165° |
| 2026-04-29 06:21 | -6.59140 | -78.74176 | 35009 ft | 457 kts | 165° |
| 2026-04-29 06:21 | -6.65284 | -78.72481 | 35010 ft | 458 kts | 165° |
| 2026-04-29 06:22 | -6.71449 | -78.70780 | 35010 ft | 459 kts | 165° |
| 2026-04-29 06:22 | -6.77618 | -78.69079 | 35011 ft | 460 kts | 165° |
| 2026-04-29 06:23 | -6.83796 | -78.67373 | 35009 ft | 461 kts | 165° |
| 2026-04-29 06:23 | -6.89947 | -78.65675 | 35008 ft | 461 kts | 165° |
| 2026-04-29 06:24 | -6.96130 | -78.63968 | 35004 ft | 459 kts | 165° |
| 2026-04-29 06:24 | -7.02292 | -78.62265 | 35009 ft | 459 kts | 165° |
| 2026-04-29 06:25 | -7.08447 | -78.60566 | 35008 ft | 458 kts | 165° |
| 2026-04-29 06:25 | -7.14600 | -78.58865 | 35008 ft | 458 kts | 165° |
| 2026-04-29 06:26 | -7.20754 | -78.57163 | 35007 ft | 459 kts | 165° |
| 2026-04-29 06:26 | -7.26880 | -78.55470 | 35013 ft | 460 kts | 165° |
| 2026-04-29 06:27 | -7.33068 | -78.53758 | 35011 ft | 460 kts | 165° |
| 2026-04-29 06:27 | -7.39249 | -78.52048 | 35008 ft | 460 kts | 165° |
| 2026-04-29 06:28 | -7.45422 | -78.50340 | 35008 ft | 459 kts | 165° |
| 2026-04-29 06:28 | -7.51584 | -78.48633 | 35007 ft | 459 kts | 165° |
| 2026-04-29 06:29 | -7.57733 | -78.46930 | 35009 ft | 458 kts | 165° |
| 2026-04-29 06:29 | -7.63881 | -78.45228 | 35010 ft | 458 kts | 165° |
| 2026-04-29 06:30 | -7.73071 | -78.42680 | 35010 ft | 459 kts | 165° |
| 2026-04-29 06:31 | -7.79244 | -78.40970 | 35009 ft | 460 kts | 165° |
| 2026-04-29 06:31 | -7.85421 | -78.39257 | 35013 ft | 460 kts | 165° |
| 2026-04-29 06:32 | -7.91593 | -78.37545 | 35010 ft | 460 kts | 165° |
| 2026-04-29 06:32 | -7.97777 | -78.35829 | 35011 ft | 461 kts | 165° |
| 2026-04-29 06:33 | -8.03934 | -78.34120 | 35004 ft | 461 kts | 165° |
| 2026-04-29 06:33 | -8.10127 | -78.32401 | 35011 ft | 461 kts | 165° |
| 2026-04-29 06:34 | -8.16307 | -78.30684 | 35010 ft | 459 kts | 165° |
| 2026-04-29 06:34 | -8.22469 | -78.28972 | 35005 ft | 458 kts | 165° |
| 2026-04-29 06:35 | -8.28570 | -78.27277 | 35007 ft | 457 kts | 165° |
| 2026-04-29 06:35 | -8.34713 | -78.25569 | 35014 ft | 458 kts | 165° |
| 2026-04-29 06:36 | -8.40875 | -78.23856 | 35005 ft | 460 kts | 165° |
| 2026-04-29 06:36 | -8.47047 | -78.22138 | 35011 ft | 461 kts | 165° |
| 2026-04-29 06:37 | -8.53238 | -78.20416 | 35005 ft | 460 kts | 165° |
| 2026-04-29 06:37 | -8.58367 | -78.18988 | 35007 ft | 459 kts | 165° |
| 2026-04-29 06:38 | -8.64529 | -78.17272 | 35009 ft | 459 kts | 165° |
| 2026-04-29 06:38 | -8.70690 | -78.15556 | 35009 ft | 458 kts | 165° |
| 2026-04-29 06:39 | -8.76833 | -78.13845 | 35013 ft | 458 kts | 165° |
| 2026-04-29 06:39 | -8.82945 | -78.12141 | 35006 ft | 459 kts | 165° |
| 2026-04-29 06:40 | -8.89105 | -78.10423 | 35009 ft | 460 kts | 165° |
| 2026-04-29 06:40 | -8.95291 | -78.08698 | 35012 ft | 460 kts | 165° |
| 2026-04-29 06:41 | -9.01438 | -78.06982 | 35014 ft | 461 kts | 165° |
| 2026-04-29 06:41 | -9.07619 | -78.05258 | 35010 ft | 460 kts | 165° |
| 2026-04-29 06:42 | -9.13792 | -78.03533 | 35004 ft | 459 kts | 165° |
| 2026-04-29 06:42 | -9.19940 | -78.01817 | 35010 ft | 458 kts | 165° |
| 2026-04-29 06:43 | -9.26081 | -78.00100 | 35009 ft | 457 kts | 165° |
| 2026-04-29 06:43 | -9.32225 | -77.98383 | 35005 ft | 458 kts | 165° |
| 2026-04-29 06:44 | -9.38389 | -77.96659 | 35007 ft | 459 kts | 165° |
| 2026-04-29 06:44 | -9.44515 | -77.94947 | 35011 ft | 460 kts | 165° |
| 2026-04-29 06:45 | -9.50690 | -77.93217 | 35007 ft | 461 kts | 165° |
| 2026-04-29 06:45 | -9.56874 | -77.91487 | 35008 ft | 460 kts | 165° |
| 2026-04-29 06:46 | -9.63041 | -77.89760 | 35013 ft | 459 kts | 165° |
| 2026-04-29 06:46 | -9.69205 | -77.88033 | 35007 ft | 459 kts | 165° |
| 2026-04-29 06:47 | -9.75355 | -77.86310 | 35009 ft | 458 kts | 165° |
| 2026-04-29 06:47 | -9.81464 | -77.84596 | 35007 ft | 457 kts | 165° |
| 2026-04-29 06:48 | -9.87606 | -77.82874 | 35009 ft | 458 kts | 165° |
| 2026-04-29 06:48 | -9.93777 | -77.81142 | 35006 ft | 460 kts | 165° |
| 2026-04-29 06:49 | -9.99957 | -77.79409 | 35007 ft | 461 kts | 165° |
| 2026-04-29 06:49 | -10.06137 | -77.77672 | 35011 ft | 460 kts | 165° |
| 2026-04-29 06:50 | -10.12299 | -77.75942 | 35013 ft | 459 kts | 165° |
| 2026-04-29 06:50 | -10.18464 | -77.74209 | 35008 ft | 459 kts | 165° |
| 2026-04-29 06:51 | -10.24575 | -77.72491 | 35005 ft | 458 kts | 165° |
| 2026-04-29 06:51 | -10.30717 | -77.70763 | 35008 ft | 458 kts | 165° |
| 2026-04-29 06:52 | -10.36861 | -77.69034 | 35008 ft | 458 kts | 165° |
| 2026-04-29 06:52 | -10.42999 | -77.67307 | 35009 ft | 457 kts | 165° |
| 2026-04-29 06:53 | -10.49141 | -77.65578 | 35009 ft | 457 kts | 165° |
| 2026-04-29 06:53 | -10.55286 | -77.63846 | 35008 ft | 459 kts | 165° |
| 2026-04-29 06:54 | -10.61441 | -77.62112 | 35005 ft | 460 kts | 165° |
| 2026-04-29 06:54 | -10.67618 | -77.60370 | 35009 ft | 461 kts | 165° |
| 2026-04-29 06:55 | -10.73759 | -77.58638 | 35012 ft | 460 kts | 165° |
| 2026-04-29 06:55 | -10.79924 | -77.56899 | 35015 ft | 459 kts | 165° |
| 2026-04-29 06:56 | -10.86093 | -77.55156 | 35012 ft | 459 kts | 165° |
| 2026-04-29 06:56 | -10.92239 | -77.53421 | 35009 ft | 458 kts | 165° |
| 2026-04-29 06:57 | -10.98338 | -77.51697 | 35011 ft | 457 kts | 165° |
| 2026-04-29 06:57 | -11.04481 | -77.49961 | 35007 ft | 458 kts | 165° |
| 2026-04-29 06:58 | -11.10629 | -77.48223 | 35007 ft | 459 kts | 165° |
| 2026-04-29 06:58 | -11.16790 | -77.46480 | 35011 ft | 460 kts | 165° |
| 2026-04-29 06:59 | -11.22962 | -77.44733 | 35010 ft | 460 kts | 165° |
| 2026-04-29 06:59 | -11.29144 | -77.42983 | 35006 ft | 461 kts | 165° |
| 2026-04-29 07:00 | -11.35288 | -77.41242 | 35009 ft | 460 kts | 165° |
| 2026-04-29 07:00 | -11.41453 | -77.39495 | 35009 ft | 459 kts | 165° |
| 2026-04-29 07:01 | -11.47600 | -77.37751 | 35011 ft | 458 kts | 165° |
| 2026-04-29 07:01 | -11.53735 | -77.36011 | 35012 ft | 458 kts | 165° |
| 2026-04-29 07:02 | -11.59893 | -77.34264 | 35007 ft | 459 kts | 165° |
| 2026-04-29 07:02 | -11.66024 | -77.32523 | 35009 ft | 460 kts | 165° |
| 2026-04-29 07:03 | -11.72202 | -77.30767 | 35007 ft | 460 kts | 165° |
| 2026-04-29 07:03 | -11.78387 | -77.29010 | 35008 ft | 461 kts | 165° |
| 2026-04-29 07:04 | -11.84567 | -77.27253 | 35011 ft | 460 kts | 165° |
| 2026-04-29 07:04 | -11.90728 | -77.25499 | 35004 ft | 459 kts | 165° |
| 2026-04-29 07:05 | -11.96840 | -77.23761 | 35008 ft | 458 kts | 165° |
| 2026-04-29 07:05 | -12.02978 | -77.22013 | 35012 ft | 457 kts | 165° |
| 2026-04-29 07:06 | -12.09114 | -77.20264 | 35010 ft | 458 kts | 165° |
| 2026-04-29 07:06 | -12.15257 | -77.18515 | 35013 ft | 459 kts | 165° |
| 2026-04-29 07:07 | -12.21425 | -77.16756 | 35008 ft | 460 kts | 165° |
| 2026-04-29 07:07 | -12.27591 | -77.14996 | 35005 ft | 461 kts | 165° |
| 2026-04-29 07:08 | -12.33770 | -77.13234 | 35009 ft | 461 kts | 165° |
| 2026-04-29 07:08 | -12.39947 | -77.11469 | 35006 ft | 460 kts | 165° |
| 2026-04-29 07:09 | -12.46117 | -77.09706 | 35010 ft | 459 kts | 165° |
| 2026-04-29 07:09 | -12.52228 | -77.07960 | 35010 ft | 458 kts | 165° |
| 2026-04-29 07:10 | -12.58366 | -77.06204 | 35005 ft | 457 kts | 165° |
| 2026-04-29 07:10 | -12.64514 | -77.04445 | 35007 ft | 458 kts | 165° |
| 2026-04-29 07:11 | -12.70671 | -77.02684 | 35013 ft | 459 kts | 165° |
| 2026-04-29 07:11 | -12.76846 | -77.00914 | 35007 ft | 460 kts | 165° |
| 2026-04-29 07:12 | -12.82982 | -76.99156 | 35007 ft | 461 kts | 165° |
| 2026-04-29 07:12 | -12.89156 | -76.97386 | 35008 ft | 460 kts | 165° |
| 2026-04-29 07:13 | -12.95315 | -76.95619 | 35015 ft | 459 kts | 165° |
| 2026-04-29 07:13 | -13.01476 | -76.93851 | 35010 ft | 458 kts | 165° |
| 2026-04-29 07:14 | -13.07578 | -76.92099 | 35012 ft | 457 kts | 165° |
| 2026-04-29 07:14 | -13.13717 | -76.90335 | 35011 ft | 458 kts | 165° |
| 2026-04-29 07:15 | -13.19863 | -76.88569 | 35005 ft | 459 kts | 165° |
| 2026-04-29 07:15 | -13.26026 | -76.86796 | 35009 ft | 460 kts | 165° |
| 2026-04-29 07:16 | -13.32202 | -76.85018 | 35010 ft | 461 kts | 165° |
| 2026-04-29 07:16 | -13.38384 | -76.83240 | 35013 ft | 460 kts | 165° |
| 2026-04-29 07:17 | -13.44514 | -76.81474 | 35013 ft | 459 kts | 165° |
| 2026-04-29 07:17 | -13.50658 | -76.79702 | 35005 ft | 458 kts | 165° |
| 2026-04-29 07:18 | -13.56795 | -76.77934 | 35012 ft | 457 kts | 165° |
| 2026-04-29 07:18 | -13.62926 | -76.76165 | 35011 ft | 458 kts | 165° |
| 2026-04-29 07:19 | -13.69080 | -76.74387 | 35008 ft | 459 kts | 165° |
| 2026-04-29 07:19 | -13.75232 | -76.72612 | 35009 ft | 460 kts | 165° |
| 2026-04-29 07:20 | -13.81412 | -76.70826 | 35010 ft | 461 kts | 165° |
| 2026-04-29 07:20 | -13.87560 | -76.69047 | 35007 ft | 460 kts | 165° |
| 2026-04-29 07:21 | -13.93721 | -76.67266 | 35010 ft | 459 kts | 165° |
| 2026-04-29 07:21 | -13.99874 | -76.65485 | 35011 ft | 458 kts | 165° |
| 2026-04-29 07:22 | -14.05977 | -76.63716 | 35010 ft | 458 kts | 165° |
| 2026-04-29 07:22 | -14.12114 | -76.61939 | 35007 ft | 457 kts | 165° |
| 2026-04-29 07:23 | -14.17209 | -76.60461 | 35009 ft | 458 kts | 165° |
| 2026-04-29 07:23 | -14.23356 | -76.58678 | 35007 ft | 459 kts | 165° |
| 2026-04-29 07:24 | -14.29519 | -76.56890 | 35012 ft | 460 kts | 165° |
| 2026-04-29 07:24 | -14.35693 | -76.55096 | 35011 ft | 461 kts | 165° |
| 2026-04-29 07:25 | -14.41835 | -76.53312 | 35006 ft | 460 kts | 164° |
| 2026-04-29 07:25 | -14.47999 | -76.51520 | 35011 ft | 459 kts | 165° |
| 2026-04-29 07:26 | -14.54144 | -76.49731 | 35006 ft | 458 kts | 165° |
| 2026-04-29 07:26 | -14.60284 | -76.47945 | 35012 ft | 458 kts | 164° |
| 2026-04-29 07:27 | -14.66417 | -76.46159 | 35006 ft | 457 kts | 165° |
| 2026-04-29 07:27 | -14.72506 | -76.44384 | 35006 ft | 458 kts | 165° |
| 2026-04-29 07:28 | -14.78658 | -76.42590 | 35012 ft | 459 kts | 164° |
| 2026-04-29 07:28 | -14.84822 | -76.40792 | 35010 ft | 461 kts | 164° |
| 2026-04-29 07:29 | -14.90999 | -76.38988 | 35008 ft | 461 kts | 164° |
| 2026-04-29 07:29 | -14.97159 | -76.37189 | 35012 ft | 460 kts | 164° |
| 2026-04-29 07:30 | -15.03307 | -76.35393 | 35010 ft | 459 kts | 164° |
| 2026-04-29 07:30 | -15.09447 | -76.33596 | 35011 ft | 458 kts | 164° |
| 2026-04-29 07:31 | -15.18604 | -76.30916 | 35009 ft | 458 kts | 164° |
| 2026-04-29 07:31 | -15.24768 | -76.29112 | 35008 ft | 459 kts | 164° |
| 2026-04-29 07:32 | -15.30883 | -76.27319 | 35014 ft | 460 kts | 164° |
| 2026-04-29 07:32 | -15.37050 | -76.25510 | 35011 ft | 461 kts | 164° |
| 2026-04-29 07:33 | -15.43226 | -76.23699 | 35011 ft | 461 kts | 164° |
| 2026-04-29 07:33 | -15.49396 | -76.21887 | 35009 ft | 460 kts | 164° |
| 2026-04-29 07:34 | -15.55519 | -76.20087 | 35011 ft | 459 kts | 164° |
| 2026-04-29 07:34 | -15.61655 | -76.18284 | 35011 ft | 458 kts | 164° |
| 2026-04-29 07:35 | -15.67778 | -76.16483 | 35008 ft | 457 kts | 164° |
| 2026-04-29 07:35 | -15.73911 | -76.14677 | 35014 ft | 459 kts | 164° |
| 2026-04-29 07:36 | -15.80059 | -76.12867 | 35013 ft | 460 kts | 164° |
| 2026-04-29 07:36 | -15.86224 | -76.11050 | 35007 ft | 461 kts | 164° |
| 2026-04-29 07:37 | -15.92401 | -76.09228 | 35009 ft | 460 kts | 164° |
| 2026-04-29 07:37 | -15.98526 | -76.07421 | 35008 ft | 459 kts | 164° |
| 2026-04-29 07:38 | -16.04664 | -76.05609 | 35006 ft | 458 kts | 164° |
| 2026-04-29 07:38 | -16.10792 | -76.03797 | 35007 ft | 457 kts | 164° |
| 2026-04-29 07:39 | -16.16918 | -76.01987 | 35012 ft | 458 kts | 164° |
| 2026-04-29 07:39 | -16.23061 | -76.00169 | 35012 ft | 459 kts | 164° |
| 2026-04-29 07:40 | -16.29222 | -75.98345 | 35012 ft | 460 kts | 164° |
| 2026-04-29 07:40 | -16.35389 | -75.96519 | 35008 ft | 461 kts | 164° |
| 2026-04-29 07:41 | -16.41561 | -75.94689 | 35009 ft | 460 kts | 164° |
| 2026-04-29 07:41 | -16.47712 | -75.92864 | 35013 ft | 459 kts | 164° |
| 2026-04-29 07:42 | -16.53844 | -75.91045 | 35005 ft | 458 kts | 164° |
| 2026-04-29 07:42 | -16.59981 | -75.89221 | 35007 ft | 458 kts | 164° |
| 2026-04-29 07:43 | -16.66065 | -75.87413 | 35008 ft | 457 kts | 164° |
| 2026-04-29 07:43 | -16.72197 | -75.85590 | 35009 ft | 459 kts | 164° |
| 2026-04-29 07:44 | -16.78352 | -75.83757 | 35007 ft | 460 kts | 164° |
| 2026-04-29 07:44 | -16.84510 | -75.81924 | 35009 ft | 461 kts | 164° |
| 2026-04-29 07:45 | -16.90686 | -75.80084 | 35008 ft | 461 kts | 164° |
| 2026-04-29 07:45 | -16.96853 | -75.78243 | 35014 ft | 460 kts | 164° |
| 2026-04-29 07:46 | -17.02959 | -75.76422 | 35009 ft | 458 kts | 164° |
| 2026-04-29 07:46 | -17.09093 | -75.74591 | 35011 ft | 457 kts | 164° |
| 2026-04-29 07:47 | -17.15224 | -75.72757 | 35012 ft | 458 kts | 164° |
| 2026-04-29 07:47 | -17.21364 | -75.70922 | 35007 ft | 459 kts | 164° |
| 2026-04-29 07:48 | -17.27513 | -75.69082 | 35011 ft | 460 kts | 164° |
| 2026-04-29 07:48 | -17.33637 | -75.67247 | 35012 ft | 461 kts | 164° |
| 2026-04-29 07:49 | -17.39807 | -75.65400 | 35006 ft | 461 kts | 164° |
| 2026-04-29 07:49 | -17.45966 | -75.63553 | 35007 ft | 459 kts | 164° |
| 2026-04-29 07:50 | -17.52102 | -75.61710 | 35009 ft | 458 kts | 164° |
| 2026-04-29 07:50 | -17.58225 | -75.59873 | 35011 ft | 457 kts | 164° |
| 2026-04-29 07:51 | -17.64354 | -75.58031 | 35009 ft | 458 kts | 164° |
| 2026-04-29 07:51 | -17.70461 | -75.56193 | 35010 ft | 459 kts | 164° |
| 2026-04-29 07:52 | -17.76613 | -75.54344 | 35013 ft | 460 kts | 164° |
| 2026-04-29 07:52 | -17.82780 | -75.52486 | 35008 ft | 461 kts | 164° |
| 2026-04-29 07:53 | -17.88946 | -75.50627 | 35007 ft | 461 kts | 164° |
| 2026-04-29 07:53 | -17.95107 | -75.48770 | 35007 ft | 459 kts | 164° |
| 2026-04-29 07:54 | -18.01245 | -75.46917 | 35007 ft | 458 kts | 164° |
| 2026-04-29 07:54 | -18.07374 | -75.45065 | 35011 ft | 457 kts | 164° |
| 2026-04-29 07:55 | -18.13498 | -75.43216 | 35009 ft | 458 kts | 164° |
| 2026-04-29 07:55 | -18.19591 | -75.41372 | 35011 ft | 459 kts | 164° |
| 2026-04-29 07:56 | -18.25741 | -75.39510 | 35014 ft | 460 kts | 164° |
| 2026-04-29 07:56 | -18.31900 | -75.37646 | 35014 ft | 461 kts | 164° |
| 2026-04-29 07:57 | -18.38060 | -75.35778 | 35006 ft | 460 kts | 164° |
| 2026-04-29 07:57 | -18.44212 | -75.33911 | 35011 ft | 459 kts | 164° |
| 2026-04-29 07:58 | -18.50354 | -75.32048 | 35006 ft | 458 kts | 164° |
| 2026-04-29 07:58 | -18.56478 | -75.30186 | 35011 ft | 458 kts | 164° |
| 2026-04-29 07:59 | -18.62556 | -75.28339 | 35010 ft | 457 kts | 164° |
| 2026-04-29 07:59 | -18.68682 | -75.26476 | 35008 ft | 459 kts | 164° |
| 2026-04-29 08:00 | -18.74828 | -75.24603 | 35011 ft | 460 kts | 164° |
| 2026-04-29 08:00 | -18.80983 | -75.22728 | 35011 ft | 461 kts | 164° |
| 2026-04-29 08:01 | -18.87145 | -75.20850 | 35008 ft | 460 kts | 164° |
| 2026-04-29 08:01 | -18.93303 | -75.18969 | 35008 ft | 459 kts | 164° |
| 2026-04-29 08:02 | -18.99446 | -75.17093 | 35007 ft | 458 kts | 164° |
| 2026-04-29 08:02 | -19.05574 | -75.15221 | 35007 ft | 458 kts | 164° |
| 2026-04-29 08:03 | -19.11646 | -75.13362 | 33956 ft | 457 kts | 169° |
| 2026-04-29 08:03 | -19.14711 | -75.12435 | 34064 ft | 460 kts | 169° |
| 2026-04-29 08:03 | -19.17795 | -75.11479 | 34184 ft | 463 kts | 169° |
| 2026-04-29 08:04 | -19.20891 | -75.10523 | 34301 ft | 465 kts | 169° |
| 2026-04-29 08:04 | -19.24014 | -75.09576 | 34419 ft | 467 kts | 169° |
| 2026-04-29 08:04 | -19.27152 | -75.08621 | 34542 ft | 470 kts | 169° |
| 2026-04-29 08:04 | -19.30301 | -75.07649 | 34658 ft | 472 kts | 169° |
| 2026-04-29 08:05 | -19.33466 | -75.06674 | 34778 ft | 474 kts | 169° |
| 2026-04-29 08:05 | -19.36639 | -75.05703 | 34900 ft | 476 kts | 169° |
| 2026-04-29 08:05 | -19.43044 | -75.03738 | 34997 ft | 483 kts | 169° |
| 2026-04-29 08:06 | -19.49546 | -75.01738 | 35000 ft | 488 kts | 169° |
| 2026-04-29 08:06 | -19.56028 | -74.99744 | 35001 ft | 488 kts | 169° |
| 2026-04-29 08:07 | -19.62557 | -74.97734 | 34999 ft | 488 kts | 169° |
| 2026-04-29 08:07 | -19.69078 | -74.95724 | 35005 ft | 488 kts | 169° |
| 2026-04-29 08:08 | -19.75600 | -74.93713 | 35005 ft | 488 kts | 169° |
| 2026-04-29 08:08 | -19.82116 | -74.91702 | 35002 ft | 487 kts | 169° |
| 2026-04-29 08:09 | -19.87535 | -74.90027 | 35000 ft | 487 kts | 169° |
| 2026-04-29 08:09 | -19.95092 | -74.87691 | 35003 ft | 486 kts | 169° |
| 2026-04-29 08:10 | -20.00543 | -74.86005 | 35006 ft | 486 kts | 169° |
| 2026-04-29 08:10 | -20.07004 | -74.84004 | 35001 ft | 486 kts | 169° |
| 2026-04-29 08:11 | -20.13496 | -74.81992 | 35004 ft | 486 kts | 169° |
| 2026-04-29 08:11 | -20.20004 | -74.79973 | 35004 ft | 486 kts | 169° |
| 2026-04-29 08:12 | -20.26508 | -74.77954 | 35008 ft | 489 kts | 169° |
| 2026-04-29 08:12 | -20.33052 | -74.75920 | 35013 ft | 489 kts | 169° |
| 2026-04-29 08:13 | -20.39580 | -74.73890 | 35015 ft | 488 kts | 169° |
| 2026-04-29 08:13 | -20.46063 | -74.71871 | 35019 ft | 487 kts | 169° |
| 2026-04-29 08:14 | -20.52569 | -74.69844 | 35022 ft | 486 kts | 169° |
| 2026-04-29 08:14 | -20.59064 | -74.67819 | 35018 ft | 486 kts | 169° |
| 2026-04-29 08:15 | -20.65538 | -74.65798 | 35023 ft | 486 kts | 169° |
| 2026-04-29 08:15 | -20.72030 | -74.63770 | 35022 ft | 486 kts | 169° |
| 2026-04-29 08:16 | -20.78523 | -74.61740 | 35022 ft | 486 kts | 169° |
| 2026-04-29 08:16 | -20.85025 | -74.59705 | 35024 ft | 486 kts | 169° |
| 2026-04-29 08:17 | -20.91508 | -74.57674 | 35020 ft | 484 kts | 169° |
| 2026-04-29 08:17 | -20.97971 | -74.55648 | 35022 ft | 484 kts | 169° |
| 2026-04-29 08:18 | -21.04442 | -74.53617 | 35018 ft | 484 kts | 169° |
| 2026-04-29 08:18 | -21.10872 | -74.51598 | 35025 ft | 484 kts | 169° |
| 2026-04-29 08:19 | -21.17334 | -74.49566 | 35025 ft | 483 kts | 169° |
| 2026-04-29 08:19 | -21.23787 | -74.47536 | 35025 ft | 483 kts | 169° |
| 2026-04-29 08:20 | -21.30233 | -74.45505 | 35025 ft | 482 kts | 169° |
| 2026-04-29 08:20 | -21.36669 | -74.43477 | 35019 ft | 481 kts | 169° |
| 2026-04-29 08:21 | -21.43100 | -74.41447 | 35028 ft | 481 kts | 169° |
| 2026-04-29 08:21 | -21.49495 | -74.39428 | 35028 ft | 481 kts | 169° |
| 2026-04-29 08:22 | -21.55913 | -74.37398 | 35020 ft | 480 kts | 169° |
| 2026-04-29 08:22 | -21.62329 | -74.35369 | 35023 ft | 479 kts | 169° |
| 2026-04-29 08:23 | -21.68726 | -74.33343 | 35020 ft | 478 kts | 169° |
| 2026-04-29 08:23 | -21.75116 | -74.31318 | 35025 ft | 478 kts | 169° |
| 2026-04-29 08:24 | -21.81509 | -74.29289 | 35029 ft | 478 kts | 169° |
| 2026-04-29 08:24 | -21.87854 | -74.27274 | 35029 ft | 477 kts | 169° |
| 2026-04-29 08:25 | -21.94221 | -74.25250 | 35027 ft | 477 kts | 169° |
| 2026-04-29 08:25 | -22.00587 | -74.23225 | 35028 ft | 476 kts | 169° |
| 2026-04-29 08:26 | -22.06940 | -74.21202 | 35031 ft | 476 kts | 169° |
| 2026-04-29 08:26 | -22.13265 | -74.19185 | 35029 ft | 476 kts | 168° |
| 2026-04-29 08:27 | -22.19628 | -74.17155 | 35030 ft | 477 kts | 168° |
| 2026-04-29 08:27 | -22.25994 | -74.15121 | 35030 ft | 477 kts | 168° |
| 2026-04-29 08:28 | -22.32353 | -74.13089 | 35031 ft | 475 kts | 168° |
| 2026-04-29 08:28 | -22.38683 | -74.11064 | 35030 ft | 474 kts | 168° |
| 2026-04-29 08:29 | -22.45000 | -74.09040 | 35031 ft | 473 kts | 168° |
| 2026-04-29 08:29 | -22.51273 | -74.07030 | 35028 ft | 473 kts | 168° |
| 2026-04-29 08:30 | -22.60745 | -74.03989 | 35029 ft | 473 kts | 168° |
| 2026-04-29 08:31 | -22.67060 | -74.01960 | 35028 ft | 472 kts | 168° |
| 2026-04-29 08:31 | -22.73349 | -73.99937 | 35029 ft | 471 kts | 168° |
| 2026-04-29 08:32 | -22.79598 | -73.97925 | 35031 ft | 471 kts | 168° |
| 2026-04-29 08:32 | -22.85882 | -73.95900 | 35033 ft | 471 kts | 168° |
| 2026-04-29 08:33 | -22.92206 | -73.93860 | 35026 ft | 471 kts | 168° |
| 2026-04-29 08:33 | -22.98448 | -73.91845 | 35026 ft | 470 kts | 168° |
| 2026-04-29 08:34 | -23.04716 | -73.89818 | 35035 ft | 469 kts | 168° |
| 2026-04-29 08:34 | -23.10990 | -73.87790 | 35031 ft | 469 kts | 168° |
| 2026-04-29 08:35 | -23.17255 | -73.85759 | 35027 ft | 469 kts | 168° |
| 2026-04-29 08:35 | -23.23513 | -73.83732 | 35024 ft | 469 kts | 168° |
| 2026-04-29 08:36 | -23.29734 | -73.81712 | 35027 ft | 469 kts | 168° |
| 2026-04-29 08:36 | -23.36003 | -73.79677 | 35026 ft | 469 kts | 168° |
| 2026-04-29 08:37 | -23.42266 | -73.77640 | 35028 ft | 469 kts | 168° |
| 2026-04-29 08:37 | -23.48523 | -73.75604 | 35026 ft | 469 kts | 168° |
| 2026-04-29 08:38 | -23.54733 | -73.73581 | 35025 ft | 469 kts | 168° |
| 2026-04-29 08:38 | -23.60995 | -73.71539 | 35028 ft | 470 kts | 167° |
| 2026-04-29 08:39 | -23.67266 | -73.69492 | 35025 ft | 469 kts | 167° |
| 2026-04-29 08:39 | -23.73526 | -73.67447 | 35025 ft | 469 kts | 167° |
| 2026-04-29 08:40 | -23.79770 | -73.65405 | 35027 ft | 469 kts | 167° |
| 2026-04-29 08:40 | -23.85987 | -73.63370 | 35027 ft | 469 kts | 167° |
| 2026-04-29 08:41 | -23.92243 | -73.61319 | 35026 ft | 469 kts | 167° |
| 2026-04-29 08:41 | -23.98504 | -73.59265 | 35026 ft | 469 kts | 167° |
| 2026-04-29 08:42 | -24.04747 | -73.57216 | 35028 ft | 468 kts | 167° |
| 2026-04-29 08:42 | -24.11000 | -73.55160 | 35028 ft | 469 kts | 167° |
| 2026-04-29 08:43 | -24.17257 | -73.53101 | 35025 ft | 469 kts | 167° |
| 2026-04-29 08:43 | -24.23517 | -73.51039 | 35028 ft | 469 kts | 166° |
| 2026-04-29 08:44 | -24.29762 | -73.48979 | 35029 ft | 468 kts | 166° |
| 2026-04-29 08:44 | -24.35989 | -73.46924 | 35029 ft | 467 kts | 166° |
| 2026-04-29 08:45 | -24.42175 | -73.44880 | 35033 ft | 466 kts | 166° |
| 2026-04-29 08:45 | -24.48401 | -73.42822 | 35025 ft | 467 kts | 166° |
| 2026-04-29 08:46 | -24.54619 | -73.40762 | 35029 ft | 466 kts | 166° |
| 2026-04-29 08:46 | -24.60839 | -73.38702 | 35025 ft | 467 kts | 165° |
| 2026-04-29 08:47 | -24.67065 | -73.36636 | 35024 ft | 467 kts | 165° |
| 2026-04-29 08:47 | -24.73251 | -73.34580 | 35027 ft | 468 kts | 165° |
| 2026-04-29 08:48 | -24.79504 | -73.32501 | 35027 ft | 468 kts | 165° |
| 2026-04-29 08:48 | -24.85734 | -73.30430 | 35025 ft | 467 kts | 164° |
| 2026-04-29 08:49 | -24.91954 | -73.28356 | 35026 ft | 467 kts | 164° |
| 2026-04-29 08:49 | -24.98170 | -73.26282 | 35027 ft | 467 kts | 164° |
| 2026-04-29 08:50 | -25.04388 | -73.24208 | 35026 ft | 466 kts | 163° |
| 2026-04-29 08:50 | -25.10602 | -73.22129 | 35024 ft | 467 kts | 163° |
| 2026-04-29 08:51 | -25.16778 | -73.20064 | 35024 ft | 466 kts | 163° |
| 2026-04-29 08:51 | -25.22996 | -73.17981 | 35025 ft | 466 kts | 163° |
| 2026-04-29 08:52 | -25.29193 | -73.15903 | 35025 ft | 465 kts | 163° |
| 2026-04-29 08:52 | -25.35394 | -73.13822 | 35022 ft | 465 kts | 163° |
| 2026-04-29 08:53 | -25.41593 | -73.11739 | 35022 ft | 465 kts | 163° |
| 2026-04-29 08:53 | -25.47753 | -73.09667 | 35023 ft | 465 kts | 163° |
| 2026-04-29 08:54 | -25.53954 | -73.07579 | 35021 ft | 465 kts | 163° |
| 2026-04-29 08:54 | -25.60137 | -73.05494 | 35023 ft | 465 kts | 163° |
| 2026-04-29 08:55 | -25.65284 | -73.03758 | 35022 ft | 464 kts | 163° |
| 2026-04-29 08:55 | -25.72477 | -73.01327 | 35024 ft | 465 kts | 163° |
| 2026-04-29 08:56 | -25.78661 | -72.99236 | 35022 ft | 464 kts | 163° |
| 2026-04-29 08:56 | -25.83846 | -72.97481 | 35023 ft | 464 kts | 163° |
| 2026-04-29 08:57 | -25.89993 | -72.95398 | 35023 ft | 464 kts | 163° |
| 2026-04-29 08:57 | -25.96168 | -72.93303 | 35024 ft | 464 kts | 163° |
| 2026-04-29 08:58 | -26.02352 | -72.91203 | 35023 ft | 464 kts | 163° |
| 2026-04-29 08:58 | -26.08530 | -72.89103 | 35020 ft | 464 kts | 163° |
| 2026-04-29 08:59 | -26.14702 | -72.87002 | 35021 ft | 464 kts | 163° |
| 2026-04-29 08:59 | -26.20840 | -72.84910 | 35022 ft | 464 kts | 163° |
| 2026-04-29 09:00 | -26.27027 | -72.82800 | 35022 ft | 464 kts | 163° |
| 2026-04-29 09:00 | -26.33210 | -72.80689 | 35020 ft | 465 kts | 164° |
| 2026-04-29 09:01 | -26.39404 | -72.78570 | 35023 ft | 465 kts | 164° |
| 2026-04-29 09:01 | -26.45589 | -72.76454 | 35021 ft | 465 kts | 164° |
| 2026-04-29 09:02 | -26.51782 | -72.74331 | 35021 ft | 465 kts | 165° |
| 2026-04-29 09:02 | -26.57921 | -72.72225 | 35023 ft | 464 kts | 165° |
| 2026-04-29 09:03 | -26.64104 | -72.70103 | 35018 ft | 464 kts | 165° |
| 2026-04-29 09:03 | -26.70282 | -72.67975 | 35020 ft | 464 kts | 165° |
| 2026-04-29 09:04 | -26.76449 | -72.65855 | 35015 ft | 464 kts | 165° |
| 2026-04-29 09:04 | -26.82616 | -72.63730 | 35024 ft | 463 kts | 165° |
| 2026-04-29 09:05 | -26.88775 | -72.61606 | 35025 ft | 463 kts | 165° |
| 2026-04-29 09:05 | -26.94933 | -72.59478 | 35021 ft | 463 kts | 165° |
| 2026-04-29 09:06 | -27.01053 | -72.57361 | 35023 ft | 462 kts | 165° |
| 2026-04-29 09:06 | -27.07197 | -72.55235 | 35024 ft | 462 kts | 165° |
| 2026-04-29 09:07 | -27.13347 | -72.53102 | 35024 ft | 462 kts | 165° |
| 2026-04-29 09:07 | -27.19491 | -72.50973 | 35022 ft | 462 kts | 166° |
| 2026-04-29 09:08 | -27.25635 | -72.48836 | 35025 ft | 462 kts | 166° |
| 2026-04-29 09:08 | -27.31733 | -72.46716 | 35022 ft | 461 kts | 166° |
| 2026-04-29 09:09 | -27.37867 | -72.44584 | 35026 ft | 461 kts | 166° |
| 2026-04-29 09:09 | -27.43998 | -72.42442 | 35013 ft | 461 kts | 165° |
| 2026-04-29 09:10 | -27.50137 | -72.40302 | 35026 ft | 461 kts | 166° |
| 2026-04-29 09:10 | -27.56254 | -72.38162 | 35027 ft | 460 kts | 166° |
| 2026-04-29 09:11 | -27.62359 | -72.36030 | 35028 ft | 459 kts | 166° |
| 2026-04-29 09:11 | -27.68428 | -72.33902 | 35023 ft | 459 kts | 166° |
| 2026-04-29 09:12 | -27.74522 | -72.31767 | 35019 ft | 458 kts | 166° |
| 2026-04-29 09:12 | -27.80613 | -72.29627 | 35029 ft | 458 kts | 166° |
| 2026-04-29 09:13 | -27.86707 | -72.27488 | 35029 ft | 458 kts | 166° |
| 2026-04-29 09:13 | -27.92787 | -72.25346 | 35020 ft | 457 kts | 166° |
| 2026-04-29 09:14 | -27.98868 | -72.23206 | 35024 ft | 457 kts | 166° |
| 2026-04-29 09:14 | -28.04946 | -72.21061 | 35022 ft | 457 kts | 166° |
| 2026-04-29 09:15 | -28.10985 | -72.18929 | 35021 ft | 457 kts | 166° |
| 2026-04-29 09:15 | -28.17053 | -72.16784 | 35027 ft | 457 kts | 166° |
| 2026-04-29 09:16 | -28.23131 | -72.14632 | 35023 ft | 456 kts | 166° |
| 2026-04-29 09:16 | -28.29200 | -72.12481 | 35018 ft | 457 kts | 166° |
| 2026-04-29 09:17 | -28.35263 | -72.10331 | 35024 ft | 457 kts | 166° |
| 2026-04-29 09:17 | -28.41338 | -72.08173 | 35018 ft | 457 kts | 166° |
| 2026-04-29 09:18 | -28.47407 | -72.06013 | 35018 ft | 457 kts | 166° |
| 2026-04-29 09:18 | -28.53434 | -72.03868 | 35011 ft | 456 kts | 166° |
| 2026-04-29 09:19 | -28.59499 | -72.01706 | 35022 ft | 457 kts | 166° |
| 2026-04-29 09:19 | -28.65573 | -71.99537 | 35018 ft | 457 kts | 166° |
| 2026-04-29 09:20 | -28.71643 | -71.97369 | 35017 ft | 457 kts | 166° |
| 2026-04-29 09:20 | -28.77713 | -71.95197 | 35020 ft | 457 kts | 166° |
| 2026-04-29 09:21 | -28.83750 | -71.93034 | 35019 ft | 456 kts | 166° |
| 2026-04-29 09:21 | -28.89817 | -71.90858 | 35019 ft | 457 kts | 166° |
| 2026-04-29 09:22 | -28.95893 | -71.88675 | 35017 ft | 456 kts | 166° |
| 2026-04-29 09:22 | -29.01943 | -71.86500 | 35021 ft | 455 kts | 166° |
| 2026-04-29 09:23 | -29.07944 | -71.84340 | 35018 ft | 454 kts | 166° |
| 2026-04-29 09:23 | -29.13974 | -71.82166 | 35023 ft | 454 kts | 166° |
| 2026-04-29 09:24 | -29.20011 | -71.79987 | 35018 ft | 454 kts | 166° |
| 2026-04-29 09:24 | -29.26002 | -71.77823 | 35019 ft | 454 kts | 166° |
| 2026-04-29 09:25 | -29.32033 | -71.75640 | 35017 ft | 454 kts | 166° |
| 2026-04-29 09:25 | -29.38060 | -71.73458 | 35018 ft | 454 kts | 166° |
| 2026-04-29 09:26 | -29.44088 | -71.71271 | 35019 ft | 454 kts | 166° |
| 2026-04-29 09:26 | -29.50103 | -71.69088 | 35017 ft | 454 kts | 166° |
| 2026-04-29 09:27 | -29.56120 | -71.66899 | 35015 ft | 453 kts | 167° |
| 2026-04-29 09:27 | -29.62093 | -71.64725 | 35013 ft | 453 kts | 167° |
| 2026-04-29 09:28 | -29.68102 | -71.62535 | 35016 ft | 452 kts | 167° |
| 2026-04-29 09:28 | -29.74096 | -71.60347 | 35014 ft | 451 kts | 167° |
| 2026-04-29 09:29 | -29.80069 | -71.58164 | 35013 ft | 450 kts | 167° |
| 2026-04-29 09:29 | -29.89000 | -71.54896 | 35013 ft | 447 kts | 167° |
| 2026-04-29 09:30 | -29.94930 | -71.52722 | 35007 ft | 446 kts | 167° |
| 2026-04-29 09:30 | -30.00814 | -71.50563 | 35012 ft | 446 kts | 167° |
| 2026-04-29 09:31 | -30.06732 | -71.48388 | 35010 ft | 446 kts | 167° |
| 2026-04-29 09:31 | -30.12644 | -71.46213 | 35014 ft | 446 kts | 167° |
| 2026-04-29 09:32 | -30.18560 | -71.44034 | 35017 ft | 446 kts | 167° |
| 2026-04-29 09:32 | -30.24462 | -71.41857 | 35021 ft | 445 kts | 167° |
| 2026-04-29 09:33 | -30.30371 | -71.39674 | 35010 ft | 445 kts | 167° |
| 2026-04-29 09:33 | -30.36227 | -71.37509 | 35018 ft | 445 kts | 167° |
| 2026-04-29 09:34 | -30.42130 | -71.35323 | 35025 ft | 444 kts | 167° |
| 2026-04-29 09:34 | -30.48022 | -71.33139 | 35023 ft | 444 kts | 168° |
| 2026-04-29 09:35 | -30.53921 | -71.30949 | 35023 ft | 445 kts | 168° |
| 2026-04-29 09:35 | -30.59818 | -71.28757 | 35027 ft | 445 kts | 168° |
| 2026-04-29 09:36 | -30.65723 | -71.26559 | 35024 ft | 445 kts | 168° |
| 2026-04-29 09:36 | -30.71592 | -71.24372 | 35024 ft | 445 kts | 168° |
| 2026-04-29 09:37 | -30.77499 | -71.22169 | 35028 ft | 445 kts | 168° |
| 2026-04-29 09:37 | -30.83396 | -71.19965 | 35028 ft | 444 kts | 168° |
| 2026-04-29 09:38 | -30.89282 | -71.17763 | 35029 ft | 443 kts | 168° |
| 2026-04-29 09:38 | -30.95121 | -71.15577 | 35027 ft | 442 kts | 168° |
| 2026-04-29 09:39 | -31.00979 | -71.13379 | 35032 ft | 441 kts | 168° |
| 2026-04-29 09:39 | -31.06802 | -71.11194 | 35040 ft | 442 kts | 169° |
| 2026-04-29 09:40 | -31.12656 | -71.08991 | 35040 ft | 441 kts | 169° |
| 2026-04-29 09:40 | -31.18493 | -71.06794 | 35043 ft | 440 kts | 169° |
| 2026-04-29 09:41 | -31.23342 | -71.04967 | 35043 ft | 440 kts | 169° |
| 2026-04-29 09:41 | -31.29169 | -71.02766 | 35047 ft | 439 kts | 169° |
| 2026-04-29 09:42 | -31.34998 | -71.00565 | 35049 ft | 439 kts | 169° |
| 2026-04-29 09:42 | -31.40806 | -70.98366 | 35051 ft | 439 kts | 169° |
| 2026-04-29 09:43 | -31.46621 | -70.96165 | 35052 ft | 439 kts | 169° |
| 2026-04-29 09:43 | -31.52399 | -70.93971 | 35054 ft | 439 kts | 169° |
| 2026-04-29 09:44 | -31.58222 | -70.91758 | 35054 ft | 439 kts | 169° |
| 2026-04-29 09:44 | -31.64031 | -70.89554 | 35054 ft | 438 kts | 169° |
| 2026-04-29 09:45 | -31.69847 | -70.87334 | 35053 ft | 439 kts | 169° |
| 2026-04-29 09:45 | -31.75682 | -70.85369 | 35055 ft | 427 kts | 180° |
| 2026-04-29 09:46 | -31.81528 | -70.85088 | 35043 ft | 422 kts | 185° |
| 2026-04-29 09:46 | -31.87403 | -70.84867 | 35045 ft | 421 kts | 185° |
| 2026-04-29 09:47 | -31.93263 | -70.84664 | 35048 ft | 420 kts | 185° |
| 2026-04-29 09:47 | -31.99106 | -70.84455 | 35047 ft | 419 kts | 185° |
| 2026-04-29 09:48 | -32.04943 | -70.84246 | 35039 ft | 418 kts | 186° |
| 2026-04-29 09:48 | -32.10736 | -70.84040 | 35046 ft | 419 kts | 186° |
| 2026-04-29 09:49 | -32.16564 | -70.83831 | 35048 ft | 419 kts | 186° |
| 2026-04-29 09:49 | -32.22378 | -70.83622 | 35038 ft | 418 kts | 186° |
| 2026-04-29 09:50 | -32.28188 | -70.83415 | 35042 ft | 416 kts | 186° |
| 2026-04-29 09:50 | -32.33949 | -70.83208 | 35043 ft | 417 kts | 186° |
| 2026-04-29 09:51 | -32.39759 | -70.82998 | 35050 ft | 416 kts | 186° |
| 2026-04-29 09:51 | -32.45551 | -70.82791 | 35039 ft | 416 kts | 186° |
| 2026-04-29 09:52 | -32.51315 | -70.82581 | 35049 ft | 413 kts | 186° |
| 2026-04-29 09:52 | -32.57023 | -70.82378 | 35057 ft | 414 kts | 186° |
| 2026-04-29 09:53 | -32.62790 | -70.82167 | 35058 ft | 414 kts | 186° |
| 2026-04-29 09:53 | -32.68539 | -70.81961 | 35062 ft | 413 kts | 186° |
| 2026-04-29 09:54 | -32.74286 | -70.81751 | 35061 ft | 412 kts | 186° |
| 2026-04-29 09:54 | -32.80018 | -70.81545 | 35064 ft | 411 kts | 186° |
| 2026-04-29 09:55 | -32.85550 | -70.81342 | 35062 ft | 411 kts | 186° |
| 2026-04-29 09:55 | -32.91264 | -70.81145 | 35060 ft | 409 kts | 188° |
| 2026-04-29 09:56 | -32.96822 | -70.81864 | 35053 ft | 400 kts | 194° |
| 2026-04-29 09:56 | -33.02403 | -70.82305 | 35070 ft | 409 kts | 185° |
| 2026-04-29 09:57 | -33.08084 | -70.81964 | 35065 ft | 407 kts | 186° |
| 2026-04-29 09:57 | -33.13760 | -70.81650 | 35066 ft | 409 kts | 186° |
| 2026-04-29 09:58 | -33.19293 | -70.81309 | 35066 ft | 379 kts | 186° |
| 2026-04-29 09:58 | -33.21865 | -70.81164 | 35065 ft | 360 kts | 187° |
| 2026-04-29 09:58 | -33.24278 | -70.81040 | 35059 ft | 343 kts | 187° |
| 2026-04-29 09:59 | -33.26609 | -70.80915 | 35063 ft | 327 kts | 188° |
| 2026-04-29 09:59 | -33.28824 | -70.80798 | 35060 ft | 311 kts | 188° |
| 2026-04-29 09:59 | -33.33088 | -70.80591 | 35067 ft | 307 kts | 188° |
| 2026-04-29 10:00 | -33.37378 | -70.80363 | 35074 ft | 309 kts | 188° |
| 2026-04-29 10:00 | -33.39544 | -70.79968 | 35079 ft | 324 kts | 176° |
| 2026-04-29 10:00 | -33.41714 | -70.79126 | 35073 ft | 328 kts | 174° |
| 2026-04-29 10:01 | -33.43894 | -70.78390 | 35078 ft | 317 kts | 183° |
| 2026-04-29 10:01 | -33.46048 | -70.78189 | 35071 ft | 308 kts | 189° |
| 2026-04-29 10:01 | -33.50305 | -70.77984 | 35070 ft | 309 kts | 188° |
| 2026-04-29 10:02 | -33.54586 | -70.77750 | 35084 ft | 307 kts | 189° |
| 2026-04-29 10:02 | -33.58861 | -70.77533 | 35082 ft | 306 kts | 189° |
| 2026-04-29 10:03 | -33.63113 | -70.77314 | 35081 ft | 306 kts | 189° |
| 2026-04-29 10:03 | -33.67382 | -70.77111 | 35078 ft | 307 kts | 188° |
| 2026-04-29 10:04 | -33.71622 | -70.76883 | 35074 ft | 306 kts | 189° |
| 2026-04-29 10:04 | -33.75864 | -70.76676 | 35075 ft | 305 kts | 189° |
| 2026-04-29 10:05 | -33.80116 | -70.76459 | 35071 ft | 305 kts | 188° |
| 2026-04-29 10:05 | -33.84342 | -70.76245 | 35074 ft | 303 kts | 189° |
| 2026-04-29 10:06 | -33.88547 | -70.76032 | 35075 ft | 301 kts | 188° |
| 2026-04-29 10:06 | -33.90596 | -70.76058 | 35077 ft | 292 kts | 197° |
| 2026-04-29 10:06 | -33.92558 | -70.76545 | 35073 ft | 284 kts | 205° |
| 2026-04-29 10:07 | -33.94372 | -70.77434 | 35077 ft | 279 kts | 213° |
| 2026-04-29 10:07 | -33.96003 | -70.78687 | 35074 ft | 276 kts | 221° |
| 2026-04-29 10:07 | -33.97410 | -70.80256 | 35077 ft | 276 kts | 229° |
| 2026-04-29 10:07 | -33.98565 | -70.82108 | 35073 ft | 277 kts | 236° |
| 2026-04-29 10:08 | -33.99434 | -70.84190 | 35068 ft | 280 kts | 244° |
| 2026-04-29 10:08 | -33.99985 | -70.86468 | 35075 ft | 287 kts | 252° |
| 2026-04-29 10:08 | -34.00182 | -70.88855 | 35074 ft | 294 kts | 261° |
| 2026-04-29 10:08 | -33.99996 | -70.91350 | 35072 ft | 305 kts | 270° |
| 2026-04-29 10:09 | -33.99383 | -70.93854 | 35070 ft | 320 kts | 281° |
| 2026-04-29 10:09 | -33.98301 | -70.96271 | 35078 ft | 336 kts | 291° |
| 2026-04-29 10:09 | -33.96735 | -70.98458 | 35080 ft | 355 kts | 304° |
| 2026-04-29 10:09 | -33.94681 | -71.00253 | 35082 ft | 376 kts | 319° |
| 2026-04-29 10:10 | -33.92187 | -71.01466 | 35081 ft | 398 kts | 334° |
| 2026-04-29 10:10 | -33.89369 | -71.01894 | 35080 ft | 419 kts | 352° |
| 2026-04-29 10:10 | -33.86432 | -71.01374 | 35086 ft | 437 kts | 11° |
| 2026-04-29 10:10 | -33.83643 | -70.99841 | 35089 ft | 447 kts | 31° |
| 2026-04-29 10:11 | -33.81221 | -70.97460 | 35077 ft | 449 kts | 42° |
| 2026-04-29 10:11 | -33.78945 | -70.94899 | 35071 ft | 448 kts | 43° |
| 2026-04-29 10:11 | -33.74359 | -70.89803 | 35073 ft | 450 kts | 41° |
| 2026-04-29 10:12 | -33.69739 | -70.84725 | 35078 ft | 450 kts | 42° |
| 2026-04-29 10:12 | -33.65077 | -70.79725 | 35075 ft | 448 kts | 31° |
| 2026-04-29 10:13 | -33.62317 | -70.78104 | 35088 ft | 438 kts | 10° |
| 2026-04-29 10:13 | -33.59405 | -70.77510 | 35082 ft | 423 kts | 351° |
| 2026-04-29 10:13 | -33.56554 | -70.77881 | 35084 ft | 402 kts | 334° |
| 2026-04-29 10:13 | -33.54019 | -70.79049 | 35085 ft | 381 kts | 318° |
| 2026-04-29 10:14 | -33.51910 | -70.80833 | 35087 ft | 361 kts | 303° |
| 2026-04-29 10:14 | -33.50292 | -70.83029 | 35088 ft | 343 kts | 291° |
| 2026-04-29 10:14 | -33.49177 | -70.85467 | 35087 ft | 327 kts | 279° |
| 2026-04-29 10:14 | -33.48542 | -70.88019 | 35085 ft | 313 kts | 269° |
| 2026-04-29 10:15 | -33.48577 | -70.93017 | 35087 ft | 295 kts | 250° |
| 2026-04-29 10:15 | -33.49171 | -70.95340 | 35082 ft | 289 kts | 241° |
| 2026-04-29 10:15 | -33.50102 | -70.97457 | 35085 ft | 285 kts | 233° |
| 2026-04-29 10:16 | -33.51324 | -70.99310 | 35079 ft | 283 kts | 225° |
| 2026-04-29 10:16 | -33.52278 | -71.00374 | 35084 ft | 283 kts | 219° |
| 2026-04-29 10:16 | -33.54501 | -71.02067 | 35087 ft | 285 kts | 208° |
| 2026-04-29 10:16 | -33.56381 | -71.02891 | 35083 ft | 291 kts | 200° |
| 2026-04-29 10:17 | -33.58393 | -71.03284 | 35079 ft | 296 kts | 191° |
| 2026-04-29 10:17 | -33.60483 | -71.03249 | 35078 ft | 301 kts | 186° |
| 2026-04-29 10:17 | -33.62569 | -71.03130 | 35076 ft | 299 kts | 186° |
| 2026-04-29 10:17 | -33.64652 | -71.03036 | 35083 ft | 298 kts | 187° |
| 2026-04-29 10:18 | -33.66724 | -71.02930 | 35082 ft | 300 kts | 184° |
| 2026-04-29 10:18 | -33.68815 | -71.02447 | 35081 ft | 312 kts | 173° |
| 2026-04-29 10:18 | -33.70856 | -71.01426 | 35082 ft | 326 kts | 162° |
| 2026-04-29 10:18 | -33.72739 | -70.99863 | 35076 ft | 341 kts | 151° |
| 2026-04-29 10:19 | -33.74386 | -70.97726 | 35078 ft | 358 kts | 138° |
| 2026-04-29 10:19 | -33.75646 | -70.95053 | 35081 ft | 378 kts | 124° |
| 2026-04-29 10:19 | -33.76364 | -70.91933 | 35079 ft | 399 kts | 108° |
| 2026-04-29 10:19 | -33.76398 | -70.88524 | 35085 ft | 419 kts | 91° |
| 2026-04-29 10:20 | -33.75641 | -70.85088 | 35072 ft | 434 kts | 72° |
| 2026-04-29 10:20 | -33.74073 | -70.81940 | 35085 ft | 444 kts | 52° |
| 2026-04-29 10:20 | -33.71803 | -70.79426 | 35088 ft | 446 kts | 32° |
| 2026-04-29 10:20 | -33.69047 | -70.77799 | 35090 ft | 439 kts | 12° |
| 2026-04-29 10:21 | -33.66084 | -70.77177 | 35086 ft | 426 kts | 352° |
| 2026-04-29 10:21 | -33.63141 | -70.77274 | 35070 ft | 422 kts | 348° |
| 2026-04-29 10:21 | -33.57293 | -70.77714 | 35082 ft | 414 kts | 340° |
| 2026-04-29 10:22 | -33.54615 | -70.78706 | 35095 ft | 394 kts | 322° |
| 2026-04-29 10:22 | -33.52355 | -70.80391 | 35087 ft | 375 kts | 307° |
| 2026-04-29 10:22 | -33.50603 | -70.82536 | 35085 ft | 355 kts | 293° |
| 2026-04-29 10:22 | -33.49355 | -70.84997 | 35089 ft | 338 kts | 281° |
| 2026-04-29 10:23 | -33.48620 | -70.87595 | 35085 ft | 323 kts | 270° |
| 2026-04-29 10:23 | -33.48360 | -70.90213 | 35083 ft | 312 kts | 259° |
| 2026-04-29 10:23 | -33.48536 | -70.92750 | 35079 ft | 301 kts | 250° |
| 2026-04-29 10:23 | -33.49101 | -70.95122 | 35085 ft | 293 kts | 240° |
| 2026-04-29 10:24 | -33.50012 | -70.97283 | 35086 ft | 287 kts | 232° |
| 2026-04-29 10:24 | -33.51216 | -70.99168 | 35077 ft | 284 kts | 224° |
| 2026-04-29 10:24 | -33.52680 | -71.00748 | 35077 ft | 283 kts | 216° |
| 2026-04-29 10:24 | -33.54351 | -71.01976 | 35088 ft | 283 kts | 207° |
| 2026-04-29 10:25 | -33.56201 | -71.02829 | 35079 ft | 287 kts | 199° |
| 2026-04-29 10:25 | -33.58177 | -71.03261 | 35068 ft | 290 kts | 190° |
| 2026-04-29 10:25 | -33.60213 | -71.03262 | 35074 ft | 295 kts | 184° |
| 2026-04-29 10:25 | -33.62260 | -71.03144 | 35073 ft | 293 kts | 185° |
| 2026-04-29 10:26 | -33.64297 | -71.03051 | 35070 ft | 292 kts | 185° |
| 2026-04-29 10:26 | -33.66328 | -71.02959 | 35077 ft | 293 kts | 184° |
| 2026-04-29 10:26 | -33.69716 | -71.02066 | 35080 ft | 310 kts | 168° |
| 2026-04-29 10:27 | -33.73934 | -70.98409 | 35083 ft | 341 kts | 142° |
| 2026-04-29 10:27 | -33.75287 | -70.95975 | 35084 ft | 362 kts | 129° |
| 2026-04-29 10:27 | -33.75950 | -70.94056 | 35085 ft | 376 kts | 119° |
| 2026-04-29 10:28 | -33.76452 | -70.90895 | 35081 ft | 395 kts | 103° |
| 2026-04-29 10:28 | -33.76262 | -70.87528 | 35082 ft | 413 kts | 86° |
| 2026-04-29 10:28 | -33.75318 | -70.84251 | 35086 ft | 429 kts | 68° |
| 2026-04-29 10:28 | -33.73589 | -70.81272 | 35086 ft | 441 kts | 49° |
| 2026-04-29 10:29 | -33.71193 | -70.78960 | 35088 ft | 444 kts | 28° |
| 2026-04-29 10:29 | -33.68348 | -70.77558 | 35086 ft | 439 kts | 8° |
| 2026-04-29 10:29 | -33.65348 | -70.77174 | 35092 ft | 429 kts | 351° |
| 2026-04-29 10:30 | -33.59405 | -70.77512 | 35078 ft | 428 kts | 349° |
| 2026-04-29 10:30 | -33.56505 | -70.77907 | 35092 ft | 416 kts | 335° |
| 2026-04-29 10:30 | -33.53884 | -70.79154 | 35091 ft | 397 kts | 318° |
| 2026-04-29 10:30 | -33.51715 | -70.81065 | 35090 ft | 377 kts | 303° |
| 2026-04-29 10:31 | -33.50085 | -70.83417 | 35089 ft | 358 kts | 289° |
| 2026-04-29 10:31 | -33.49004 | -70.86026 | 35085 ft | 341 kts | 276° |
| 2026-04-29 10:31 | -33.48454 | -70.88721 | 35089 ft | 326 kts | 264° |
| 2026-04-29 10:31 | -33.48390 | -70.91375 | 35083 ft | 313 kts | 254° |
| 2026-04-29 10:32 | -33.48759 | -70.93896 | 35081 ft | 302 kts | 244° |
| 2026-04-29 10:32 | -33.49506 | -70.96207 | 35086 ft | 294 kts | 235° |
| 2026-04-29 10:32 | -33.50579 | -70.98260 | 35086 ft | 288 kts | 226° |
| 2026-04-29 10:32 | -33.51927 | -71.00006 | 35080 ft | 284 kts | 218° |
| 2026-04-29 10:33 | -33.53479 | -71.01398 | 35080 ft | 281 kts | 210° |
| 2026-04-29 10:33 | -33.55228 | -71.02438 | 35081 ft | 282 kts | 201° |
| 2026-04-29 10:33 | -33.57115 | -71.03084 | 35081 ft | 284 kts | 193° |
| 2026-04-29 10:33 | -33.59090 | -71.03307 | 35079 ft | 287 kts | 185° |
| 2026-04-29 10:34 | -33.61093 | -71.03206 | 35071 ft | 288 kts | 183° |
| 2026-04-29 10:34 | -33.63094 | -71.03104 | 35076 ft | 287 kts | 184° |
| 2026-04-29 10:34 | -33.65096 | -71.03018 | 35078 ft | 287 kts | 184° |
| 2026-04-29 10:34 | -33.67096 | -71.02884 | 35079 ft | 290 kts | 179° |
| 2026-04-29 10:35 | -33.69093 | -71.02337 | 35076 ft | 299 kts | 169° |
| 2026-04-29 10:35 | -33.72803 | -70.99788 | 35074 ft | 320 kts | 149° |
| 2026-04-29 10:35 | -33.74330 | -70.97809 | 35080 ft | 336 kts | 138° |
| 2026-04-29 10:36 | -33.75541 | -70.95330 | 35082 ft | 354 kts | 126° |
| 2026-04-29 10:36 | -33.76289 | -70.92440 | 35081 ft | 372 kts | 112° |
| 2026-04-29 10:36 | -33.76451 | -70.89255 | 35083 ft | 392 kts | 96° |
| 2026-04-29 10:36 | -33.75917 | -70.85973 | 35079 ft | 412 kts | 79° |
| 2026-04-29 10:37 | -33.74625 | -70.82833 | 35084 ft | 428 kts | 61° |
| 2026-04-29 10:37 | -33.72604 | -70.80153 | 35086 ft | 439 kts | 41° |
| 2026-04-29 10:37 | -33.69998 | -70.78229 | 35094 ft | 442 kts | 21° |
| 2026-04-29 10:37 | -33.67045 | -70.77266 | 35089 ft | 438 kts | 1° |
| 2026-04-29 10:38 | -33.64029 | -70.77222 | 35080 ft | 433 kts | 351° |
| 2026-04-29 10:38 | -33.57996 | -70.77621 | 35074 ft | 430 kts | 347° |
| 2026-04-29 10:38 | -33.55149 | -70.78436 | 35100 ft | 413 kts | 327° |
| 2026-04-29 10:39 | -33.52698 | -70.80076 | 35089 ft | 396 kts | 310° |
| 2026-04-29 10:39 | -33.50766 | -70.82296 | 35088 ft | 376 kts | 295° |
| 2026-04-29 10:39 | -33.49407 | -70.84872 | 35095 ft | 357 kts | 281° |
| 2026-04-29 10:39 | -33.48626 | -70.87574 | 35086 ft | 339 kts | 269° |
| 2026-04-29 10:40 | -33.48360 | -70.90306 | 35086 ft | 324 kts | 257° |
| 2026-04-29 10:40 | -33.48567 | -70.92934 | 35089 ft | 310 kts | 246° |
| 2026-04-29 10:40 | -33.49181 | -70.95356 | 35084 ft | 300 kts | 237° |
| 2026-04-29 10:40 | -33.50143 | -70.97526 | 35083 ft | 290 kts | 228° |
| 2026-04-29 10:41 | -33.51393 | -70.99390 | 35082 ft | 284 kts | 219° |
| 2026-04-29 10:41 | -33.52885 | -71.00925 | 35080 ft | 280 kts | 211° |
| 2026-04-29 10:41 | -33.54556 | -71.02093 | 35087 ft | 278 kts | 203° |
| 2026-04-29 10:41 | -33.56378 | -71.02884 | 35079 ft | 280 kts | 195° |
| 2026-04-29 10:42 | -33.58302 | -71.03271 | 35080 ft | 282 kts | 187° |
| 2026-04-29 10:42 | -33.60271 | -71.03255 | 35076 ft | 283 kts | 182° |
| 2026-04-29 10:42 | -33.62242 | -71.03144 | 35072 ft | 282 kts | 182° |
| 2026-04-29 10:42 | -33.64185 | -71.03059 | 35076 ft | 283 kts | 182° |
| 2026-04-29 10:43 | -33.66153 | -71.02967 | 35069 ft | 283 kts | 182° |
| 2026-04-29 10:43 | -33.68115 | -71.02665 | 35076 ft | 288 kts | 173° |
| 2026-04-29 10:43 | -33.70037 | -71.01900 | 35077 ft | 295 kts | 164° |
| 2026-04-29 10:43 | -33.71857 | -71.00675 | 35074 ft | 306 kts | 155° |
| 2026-04-29 10:44 | -33.73501 | -70.98982 | 35077 ft | 317 kts | 144° |
| 2026-04-29 10:44 | -33.74874 | -70.96841 | 35071 ft | 331 kts | 133° |
| 2026-04-29 10:44 | -33.75884 | -70.94275 | 35082 ft | 349 kts | 121° |
| 2026-04-29 10:44 | -33.76418 | -70.91348 | 35082 ft | 369 kts | 107° |
| 2026-04-29 10:45 | -33.76357 | -70.88184 | 35082 ft | 389 kts | 92° |
| 2026-04-29 10:45 | -33.75468 | -70.81819 | 35097 ft | 363 kts | 113° |
| 2026-04-29 10:45 | -33.76297 | -70.79184 | 35101 ft | 326 kts | 139° |
| 2026-04-29 10:46 | -33.77898 | -70.77483 | 35088 ft | 297 kts | 162° |
| 2026-04-29 10:46 | -33.79779 | -70.76609 | 35067 ft | 286 kts | 172° |
| 2026-04-29 10:46 | -33.81723 | -70.76218 | 35071 ft | 279 kts | 181° |
| 2026-04-29 10:46 | -33.83661 | -70.76199 | 35072 ft | 277 kts | 185° |
| 2026-04-29 10:47 | -33.85589 | -70.76217 | 35069 ft | 277 kts | 182° |
| 2026-04-29 10:47 | -33.87520 | -70.76109 | 35069 ft | 277 kts | 181° |
| 2026-04-29 10:47 | -33.89444 | -70.75982 | 35069 ft | 276 kts | 183° |
| 2026-04-29 10:47 | -33.91340 | -70.76185 | 35065 ft | 273 kts | 192° |